createdAt,value
2019-05-22T00:00:34.705Z,99.99
2019-05-22T00:01:34.693Z,99.99
2019-05-22T00:02:34.679Z,99.99
2019-05-22T00:03:34.676Z,99.99
2019-05-22T00:04:34.660Z,99.99
2019-05-22T00:05:34.651Z,99.99
2019-05-22T00:06:34.651Z,99.99
2019-05-22T00:07:34.627Z,99.99
2019-05-22T00:08:34.617Z,99.99
2019-05-22T00:09:34.607Z,99.99
2019-05-22T00:10:34.628Z,99.99
2019-05-22T00:11:34.595Z,99.99
2019-05-22T00:12:46.289Z,99.99
2019-05-22T00:13:35.563Z,99.99
2019-05-22T00:14:34.551Z,99.99
2019-05-22T00:15:34.545Z,99.99
2019-05-22T00:16:34.542Z,99.99
2019-05-22T00:17:34.520Z,99.99
2019-05-22T00:18:34.514Z,99.99
2019-05-22T00:19:34.500Z,99.99
2019-05-22T00:20:34.486Z,99.99
2019-05-22T00:21:34.495Z,99.99
2019-05-22T00:22:34.464Z,99.99
2019-05-22T00:23:34.466Z,99.99
2019-05-22T00:24:34.447Z,99.99
2019-05-22T00:25:34.434Z,99.99
2019-05-22T00:26:34.438Z,99.99
2019-05-22T00:27:34.412Z,99.99
2019-05-22T00:28:34.408Z,99.99
2019-05-22T00:29:34.415Z,99.99
2019-05-22T00:30:34.380Z,99.99
2019-05-22T00:31:34.382Z,99.99
2019-05-22T00:32:34.363Z,99.99
2019-05-22T00:33:36.317Z,99.99
2019-05-22T00:34:34.338Z,99.99
2019-05-22T00:35:34.331Z,99.99
2019-05-22T00:36:34.327Z,99.99
2019-05-22T00:37:34.316Z,99.99
2019-05-22T00:38:34.296Z,99.99
2019-05-22T00:39:34.286Z,99.99
2019-05-22T00:40:34.276Z,99.99
2019-05-22T00:41:34.274Z,99.99
2019-05-22T00:42:34.252Z,99.99
2019-05-22T00:43:34.244Z,99.99
2019-05-22T00:44:34.229Z,99.99
2019-05-22T00:45:34.228Z,99.99
2019-05-22T00:46:34.220Z,99.99
2019-05-22T00:47:34.196Z,99.99
2019-05-22T00:48:34.185Z,99.99
2019-05-22T00:49:34.175Z,99.99
2019-05-22T00:50:34.165Z,99.99
2019-05-22T00:51:34.163Z,99.99
2019-05-22T00:52:34.142Z,99.99
2019-05-22T00:53:34.135Z,99.99
2019-05-22T00:54:34.122Z,99.99
2019-05-22T00:55:34.112Z,99.99
2019-05-22T00:56:34.120Z,99.99
2019-05-22T00:57:34.096Z,99.99
2019-05-22T00:58:34.081Z,99.99
2019-05-22T00:59:34.070Z,99.99
2019-05-22T01:00:34.963Z,99.99
2019-05-22T01:01:34.065Z,99.99
2019-05-22T01:02:34.050Z,99.99
2019-05-22T01:03:34.042Z,99.99
2019-05-22T02:29:35.921Z,99.99
2019-05-22T02:30:35.906Z,99.99
2019-05-22T02:31:35.896Z,99.99
2019-05-22T02:32:35.893Z,99.99
2019-05-22T02:33:35.874Z,99.99
2019-05-22T02:34:35.864Z,99.99
2019-05-22T02:35:35.854Z,99.99
2019-05-22T02:36:35.861Z,99.99
2019-05-22T02:37:35.830Z,99.99
2019-05-22T02:38:35.818Z,99.99
2019-05-22T02:39:35.823Z,99.99
2019-05-22T02:40:35.800Z,99.99
2019-05-22T02:41:35.787Z,99.99
2019-05-22T02:42:35.780Z,99.99
2019-05-22T02:43:35.769Z,99.99
2019-05-22T02:44:35.785Z,99.99
2019-05-22T02:45:35.760Z,99.99
2019-05-22T02:46:35.735Z,99.99
2019-05-22T02:47:35.723Z,99.91
2019-05-22T02:48:35.711Z,99.99
2019-05-22T02:49:35.726Z,99.99
2019-05-22T02:50:35.696Z,99.99
2019-05-22T02:51:35.683Z,99.99
2019-05-22T02:52:35.670Z,99.91
2019-05-22T02:53:35.661Z,99.99
2019-05-22T02:54:35.661Z,99.99
2019-05-22T02:55:35.642Z,99.99
2019-05-22T02:56:35.629Z,99.99
2019-05-22T02:57:35.616Z,99.99
2019-05-22T02:58:35.620Z,99.99
2019-05-22T02:59:35.607Z,99.99
2019-05-22T03:00:35.586Z,99.99
2019-05-22T03:01:35.582Z,99.99
2019-05-22T03:02:35.564Z,99.99
2019-05-22T03:03:35.560Z,99.99
2019-05-22T03:04:35.554Z,99.99
2019-05-22T03:05:35.533Z,99.99
2019-05-22T03:06:35.521Z,99.99
2019-05-22T03:07:35.520Z,99.99
2019-05-22T03:08:35.499Z,99.99
2019-05-22T03:09:35.512Z,99.75
2019-05-22T03:10:35.487Z,99.70
2019-05-22T03:11:35.468Z,99.99
2019-05-22T03:12:35.462Z,99.99
2019-05-22T03:13:35.446Z,99.99
2019-05-22T03:14:35.452Z,99.85
2019-05-22T03:15:35.428Z,99.85
2019-05-22T03:16:35.415Z,99.85
2019-05-22T03:17:35.422Z,99.60
2019-05-22T03:18:35.393Z,99.99
2019-05-22T03:19:35.406Z,99.99
2019-05-22T03:20:35.384Z,99.85
2019-05-22T03:21:35.361Z,99.99
2019-05-22T03:22:35.365Z,99.99
2019-05-22T03:23:35.347Z,99.99
2019-05-22T03:24:35.331Z,99.99
2019-05-22T03:25:35.339Z,99.99
2019-05-22T03:26:35.309Z,99.99
2019-05-22T03:27:35.298Z,99.99
2019-05-22T03:28:35.289Z,99.99
2019-05-22T03:29:35.277Z,99.85
2019-05-22T03:30:35.293Z,99.99
2019-05-22T03:31:35.263Z,99.99
2019-05-22T03:32:35.263Z,99.99
2019-05-22T03:33:35.259Z,99.99
2019-05-22T03:34:35.224Z,99.99
2019-05-22T03:35:35.224Z,99.99
2019-05-22T03:36:35.207Z,99.99
2019-05-22T03:37:35.192Z,99.85
2019-05-22T03:38:35.183Z,99.99
2019-05-22T03:39:35.172Z,99.99
2019-05-22T03:40:35.173Z,99.99
2019-05-22T03:41:35.200Z,99.99
2019-05-22T03:42:35.155Z,99.99
2019-05-22T03:43:35.134Z,99.99
2019-05-22T03:44:35.118Z,99.99
2019-05-22T03:45:35.123Z,99.99
2019-05-22T03:46:35.105Z,99.99
2019-05-22T03:47:35.088Z,99.99
2019-05-22T03:48:35.081Z,99.99
2019-05-22T03:49:35.074Z,99.99
2019-05-22T03:50:35.066Z,99.99
2019-05-22T03:51:35.045Z,99.99
2019-05-22T03:52:35.037Z,99.99
2019-05-22T03:53:35.023Z,99.99
2019-05-22T03:54:35.026Z,99.99
2019-05-22T03:55:35.049Z,99.99
2019-05-22T03:56:34.992Z,99.99
2019-05-22T03:57:45.734Z,99.99
2019-05-22T03:58:34.977Z,99.99
2019-05-22T03:59:34.962Z,99.99
2019-05-22T04:00:34.950Z,99.99
2019-05-22T04:01:34.942Z,99.99
2019-05-22T04:02:34.936Z,99.99
2019-05-22T04:03:34.921Z,99.99
2019-05-22T04:04:34.925Z,99.99
2019-05-22T04:05:34.897Z,99.99
2019-05-22T04:06:34.888Z,99.99
2019-05-22T04:07:34.883Z,99.99
2019-05-22T04:08:34.864Z,99.99
2019-05-22T04:09:34.869Z,99.91
2019-05-22T04:10:34.846Z,99.99
2019-05-22T04:11:34.858Z,99.99
2019-05-22T04:12:34.841Z,99.99
2019-05-22T04:13:34.813Z,99.99
2019-05-22T04:14:34.820Z,99.99
2019-05-22T04:15:34.792Z,99.99
2019-05-22T04:16:34.783Z,99.99
2019-05-22T04:17:34.770Z,99.99
2019-05-22T04:18:34.761Z,99.99
2019-05-22T04:19:48.670Z,99.99
2019-05-22T04:20:35.742Z,99.99
2019-05-22T04:21:34.736Z,99.99
2019-05-22T04:22:34.725Z,99.99
2019-05-22T04:23:34.708Z,99.99
2019-05-22T04:24:34.696Z,99.99
2019-05-22T04:25:34.689Z,99.99
2019-05-22T04:26:34.683Z,99.99
2019-05-22T04:27:34.665Z,99.99
2019-05-22T04:28:34.656Z,99.99
2019-05-22T04:29:34.647Z,99.99
2019-05-22T04:30:34.649Z,99.99
2019-05-22T04:31:34.645Z,99.99
2019-05-22T04:32:34.610Z,99.80
2019-05-22T04:33:34.601Z,99.99
2019-05-22T04:34:34.589Z,99.99
2019-05-22T04:35:34.579Z,99.96
2019-05-22T04:36:34.583Z,99.99
2019-05-22T04:37:34.559Z,99.99
2019-05-22T04:38:34.551Z,99.50
2019-05-22T04:39:34.537Z,99.80
2019-05-22T04:40:34.528Z,99.70
2019-05-22T04:41:34.527Z,99.50
2019-05-22T04:42:34.505Z,99.99
2019-05-22T04:43:34.498Z,99.40
2019-05-22T04:44:34.509Z,99.99
2019-05-22T04:45:34.475Z,99.76
2019-05-22T04:46:34.492Z,99.80
2019-05-22T04:47:34.453Z,99.40
2019-05-22T04:48:34.442Z,99.99
2019-05-22T04:49:34.434Z,99.50
2019-05-22T04:50:34.423Z,99.60
2019-05-22T04:51:34.411Z,99.99
2019-05-22T04:52:34.406Z,99.99
2019-05-22T04:53:34.390Z,99.55
2019-05-22T04:54:34.382Z,99.60
2019-05-22T04:55:34.372Z,99.60
2019-05-22T04:56:34.358Z,99.25
2019-05-22T04:57:34.353Z,99.19
2019-05-22T04:58:34.343Z,99.50
2019-05-22T04:59:34.324Z,99.15
2019-05-22T05:00:34.333Z,99.66
2019-05-22T05:01:34.309Z,99.99
2019-05-22T05:02:34.302Z,99.91
2019-05-22T05:03:34.306Z,99.70
2019-05-22T05:04:34.272Z,99.80
2019-05-22T05:05:34.271Z,99.60
2019-05-22T05:06:34.250Z,99.50
2019-05-22T05:07:34.250Z,99.40
2019-05-22T05:08:34.228Z,99.29
2019-05-22T05:09:34.217Z,99.09
2019-05-22T05:10:34.207Z,99.09
2019-05-22T05:11:34.213Z,98.89
2019-05-22T05:12:34.202Z,98.99
2019-05-22T05:13:34.177Z,98.38
2019-05-22T05:14:34.169Z,98.79
2019-05-22T05:15:37.127Z,98.48
2019-05-22T05:16:34.146Z,98.48
2019-05-22T05:17:34.147Z,98.38
2019-05-22T05:18:34.130Z,98.48
2019-05-22T05:19:34.125Z,98.48
2019-05-22T05:20:34.100Z,98.89
2019-05-22T05:21:34.090Z,99.09
2019-05-22T05:22:34.102Z,98.94
2019-05-22T05:23:34.068Z,98.27
2019-05-22T05:24:34.066Z,97.46
2019-05-22T05:25:34.048Z,98.74
2019-05-22T05:26:34.040Z,98.54
2019-05-22T05:27:34.026Z,98.23
2019-05-22T05:28:34.028Z,97.62
2019-05-22T05:29:34.005Z,97.66
2019-05-22T05:30:34.002Z,97.56
2019-05-22T05:31:33.983Z,97.00
2019-05-22T05:32:33.979Z,96.91
2019-05-22T05:33:33.974Z,97.52
2019-05-22T05:34:33.963Z,97.52
2019-05-22T05:35:33.989Z,97.00
2019-05-22T05:36:33.931Z,97.21
2019-05-22T05:37:33.922Z,97.00
2019-05-22T05:38:33.922Z,96.91
2019-05-22T05:39:33.907Z,96.91
2019-05-22T05:40:33.974Z,95.98
2019-05-22T05:41:33.884Z,96.70
2019-05-22T05:42:33.875Z,96.60
2019-05-22T05:43:33.869Z,95.68
2019-05-22T05:44:33.854Z,96.09
2019-05-22T05:45:33.837Z,96.09
2019-05-22T05:46:33.832Z,95.78
2019-05-22T05:47:33.819Z,95.78
2019-05-22T05:48:33.814Z,95.98
2019-05-22T05:49:33.796Z,96.50
2019-05-22T05:50:39.571Z,95.48
2019-05-22T05:51:34.784Z,96.19
2019-05-22T05:52:33.761Z,96.30
2019-05-22T05:53:33.796Z,96.30
2019-05-22T05:54:33.743Z,95.68
2019-05-22T05:55:33.729Z,95.68
2019-05-22T05:56:33.725Z,95.98
2019-05-22T05:57:33.708Z,97.00
2019-05-22T05:58:33.710Z,95.78
2019-05-22T05:59:33.689Z,96.76
2019-05-22T06:00:33.675Z,96.66
2019-05-22T06:01:33.665Z,96.15
2019-05-22T06:02:33.654Z,95.94
2019-05-22T06:03:33.658Z,95.74
2019-05-22T06:04:35.335Z,95.53
2019-05-22T06:05:33.624Z,95.43
2019-05-22T06:06:33.611Z,95.64
2019-05-22T06:07:33.610Z,95.64
2019-05-22T06:08:33.624Z,95.23
2019-05-22T06:09:33.585Z,94.88
2019-05-22T06:10:33.570Z,94.57
2019-05-22T06:11:33.556Z,95.03
2019-05-22T06:12:33.546Z,94.31
2019-05-22T06:13:33.536Z,94.21
2019-05-22T06:14:33.538Z,94.07
2019-05-22T06:15:46.423Z,93.80
2019-05-22T06:16:34.508Z,94.88
2019-05-22T06:17:33.494Z,93.76
2019-05-22T06:18:33.483Z,94.07
2019-05-22T06:19:33.483Z,93.55
2019-05-22T06:20:33.462Z,93.86
2019-05-22T06:21:33.452Z,93.45
2019-05-22T06:22:33.438Z,93.45
2019-05-22T06:23:33.429Z,94.17
2019-05-22T06:24:33.432Z,93.96
2019-05-22T06:25:33.408Z,93.35
2019-05-22T06:26:33.404Z,93.35
2019-05-22T06:27:33.388Z,93.05
2019-05-22T06:28:33.378Z,93.05
2019-05-22T06:29:33.381Z,93.35
2019-05-22T06:30:33.354Z,93.25
2019-05-22T06:31:33.367Z,93.45
2019-05-22T06:32:33.335Z,93.45
2019-05-22T06:33:33.324Z,93.76
2019-05-22T06:34:33.344Z,93.25
2019-05-22T06:35:33.391Z,93.25
2019-05-22T06:36:33.292Z,93.35
2019-05-22T06:37:33.316Z,93.45
2019-05-22T06:38:33.279Z,93.21
2019-05-22T06:39:33.272Z,93.31
2019-05-22T06:40:33.254Z,93.35
2019-05-22T06:41:33.268Z,93.62
2019-05-22T06:42:33.226Z,93.41
2019-05-22T06:43:33.214Z,92.19
2019-05-22T06:44:33.226Z,93.41
2019-05-22T06:45:35.598Z,93.01
2019-05-22T06:46:33.184Z,92.70
2019-05-22T06:47:33.173Z,93.51
2019-05-22T06:48:33.165Z,93.21
2019-05-22T06:49:33.199Z,92.49
2019-05-22T06:50:33.145Z,91.99
2019-05-22T06:51:33.131Z,92.29
2019-05-22T06:52:33.120Z,92.09
2019-05-22T06:53:33.112Z,92.19
2019-05-22T06:54:33.099Z,90.92
2019-05-22T06:55:33.096Z,92.29
2019-05-22T06:56:33.078Z,92.19
2019-05-22T06:57:33.075Z,92.25
2019-05-22T06:58:33.061Z,91.74
2019-05-22T06:59:33.047Z,91.84
2019-05-22T07:00:33.044Z,92.35
2019-05-22T07:01:33.023Z,91.13
2019-05-22T07:02:33.018Z,92.76
2019-05-22T07:03:33.029Z,91.03
2019-05-22T07:04:32.996Z,92.21
2019-05-22T07:05:32.985Z,91.69
2019-05-22T07:06:32.983Z,90.62
2019-05-22T07:07:32.974Z,90.17
2019-05-22T07:08:32.950Z,90.17
2019-05-22T07:09:32.945Z,89.61
2019-05-22T07:10:32.957Z,89.00
2019-05-22T07:11:32.920Z,89.87
2019-05-22T07:12:32.914Z,91.23
2019-05-22T07:13:32.898Z,90.42
2019-05-22T07:14:32.888Z,90.31
2019-05-22T07:15:32.879Z,89.97
2019-05-22T07:16:32.864Z,91.39
2019-05-22T07:17:32.855Z,90.07
2019-05-22T07:18:32.851Z,89.46
2019-05-22T07:19:32.863Z,89.46
2019-05-22T07:20:32.844Z,89.76
2019-05-22T07:21:34.175Z,89.87
2019-05-22T07:22:32.801Z,89.66
2019-05-22T07:23:32.791Z,89.36
2019-05-22T07:24:32.785Z,90.53
2019-05-22T07:25:32.776Z,89.31
2019-05-22T07:26:32.761Z,88.91
2019-05-22T07:27:32.752Z,88.81
2019-05-22T07:28:32.738Z,88.40
2019-05-22T07:29:32.732Z,88.30
2019-05-22T07:30:32.720Z,88.40
2019-05-22T07:31:32.707Z,87.49
2019-05-22T07:32:32.701Z,86.98
2019-05-22T07:33:32.689Z,87.73
2019-05-22T07:34:32.678Z,86.71
2019-05-22T07:35:46.015Z,87.84
2019-05-22T07:36:33.652Z,88.44
2019-05-22T07:37:32.642Z,88.54
2019-05-22T07:38:32.631Z,87.84
2019-05-22T07:39:32.623Z,88.24
2019-05-22T07:40:32.615Z,86.61
2019-05-22T07:41:32.599Z,87.84
2019-05-22T07:42:32.605Z,87.93
2019-05-22T07:43:32.577Z,88.04
2019-05-22T07:44:32.568Z,88.34
2019-05-22T07:45:32.567Z,87.43
2019-05-22T07:46:32.568Z,88.04
2019-05-22T07:47:32.538Z,88.34
2019-05-22T07:48:32.530Z,87.89
2019-05-22T07:49:32.515Z,87.18
2019-05-22T07:50:32.515Z,86.37
2019-05-22T07:51:32.496Z,86.37
2019-05-22T07:52:32.483Z,86.53
2019-05-22T07:53:32.472Z,86.43
2019-05-22T07:54:32.465Z,86.53
2019-05-22T07:55:32.468Z,86.43
2019-05-22T07:56:32.445Z,86.53
2019-05-22T07:57:32.440Z,86.53
2019-05-22T07:58:32.419Z,87.71
2019-05-22T07:59:32.410Z,86.39
2019-05-22T08:00:32.434Z,85.78
2019-05-22T08:01:32.386Z,85.27
2019-05-22T08:02:32.375Z,85.98
2019-05-22T08:03:32.365Z,85.68
2019-05-22T08:04:32.364Z,85.17
2019-05-22T08:05:32.387Z,84.22
2019-05-22T08:06:32.339Z,83.31
2019-05-22T08:07:32.326Z,84.22
2019-05-22T08:08:32.312Z,85.13
2019-05-22T08:09:32.303Z,84.38
2019-05-22T08:10:32.298Z,82.96
2019-05-22T08:11:32.292Z,84.18
2019-05-22T08:12:32.276Z,82.01
2019-05-22T08:13:32.287Z,82.62
2019-05-22T08:14:32.254Z,82.42
2019-05-22T08:15:32.238Z,82.72
2019-05-22T08:16:32.246Z,82.52
2019-05-22T08:17:32.222Z,80.76
2019-05-22T08:18:32.211Z,81.06
2019-05-22T08:19:32.197Z,81.06
2019-05-22T08:20:32.187Z,80.01
2019-05-22T08:21:32.219Z,80.41
2019-05-22T08:22:32.163Z,82.14
2019-05-22T08:23:32.159Z,80.72
2019-05-22T08:24:32.144Z,80.92
2019-05-22T08:25:32.138Z,80.41
2019-05-22T08:26:32.140Z,80.52
2019-05-22T08:27:32.111Z,79.40
2019-05-22T08:28:32.099Z,79.00
2019-05-22T08:29:32.090Z,77.98
2019-05-22T08:30:32.081Z,78.28
2019-05-22T08:31:32.080Z,80.05
2019-05-22T08:32:32.061Z,78.53
2019-05-22T08:33:32.051Z,78.12
2019-05-22T08:34:32.039Z,78.02
2019-05-22T08:35:32.026Z,77.65
2019-05-22T08:36:32.029Z,78.26
2019-05-22T08:37:32.006Z,78.06
2019-05-22T08:38:32.006Z,78.22
2019-05-22T08:39:31.993Z,78.77
2019-05-22T08:40:31.972Z,78.12
2019-05-22T08:41:31.974Z,77.82
2019-05-22T08:42:35.324Z,77.92
2019-05-22T08:43:31.942Z,78.12
2019-05-22T08:44:31.929Z,77.95
2019-05-22T08:45:31.920Z,79.07
2019-05-22T08:46:31.922Z,80.96
2019-05-22T08:47:31.898Z,80.55
2019-05-22T08:48:31.891Z,79.85
2019-05-22T08:49:31.880Z,79.74
2019-05-22T08:50:31.867Z,78.63
2019-05-22T08:51:31.867Z,78.22
2019-05-22T08:52:31.846Z,77.51
2019-05-22T08:53:46.116Z,77.51
2019-05-22T08:54:32.830Z,77.72
2019-05-22T08:55:31.821Z,77.92
2019-05-22T08:56:31.818Z,78.02
2019-05-22T08:57:31.792Z,77.58
2019-05-22T08:58:31.782Z,76.77
2019-05-22T08:59:31.771Z,76.36
2019-05-22T09:00:31.767Z,77.68
2019-05-22T09:01:31.762Z,77.95
2019-05-22T09:02:31.747Z,75.52
2019-05-22T09:03:31.834Z,75.62
2019-05-22T09:04:31.750Z,75.62
2019-05-22T09:05:31.895Z,75.62
2019-05-22T09:06:31.714Z,75.85
2019-05-22T09:07:31.708Z,75.45
2019-05-22T09:08:31.683Z,75.76
2019-05-22T09:09:31.671Z,76.77
2019-05-22T09:10:31.655Z,75.99
2019-05-22T09:11:31.661Z,75.59
2019-05-22T09:12:31.642Z,76.40
2019-05-22T09:13:31.625Z,75.73
2019-05-22T09:14:31.620Z,76.20
2019-05-22T09:15:31.609Z,77.34
2019-05-22T09:16:31.604Z,77.41
2019-05-22T09:17:31.582Z,76.70
2019-05-22T09:18:31.623Z,75.52
2019-05-22T09:19:31.562Z,75.82
2019-05-22T09:20:46.408Z,75.62
2019-05-22T09:21:32.555Z,75.62
2019-05-22T09:22:40.185Z,75.62
2019-05-22T09:23:32.519Z,75.73
2019-05-22T09:24:31.519Z,75.59
2019-05-22T09:25:31.501Z,76.70
2019-05-22T09:26:31.498Z,76.09
2019-05-22T09:27:31.475Z,75.85
2019-05-22T09:28:31.464Z,76.26
2019-05-22T09:29:31.454Z,74.17
2019-05-22T09:30:31.447Z,75.28
2019-05-22T09:31:31.451Z,74.74
2019-05-22T09:32:31.426Z,74.54
2019-05-22T09:33:31.483Z,73.86
2019-05-22T09:34:31.400Z,75.28
2019-05-22T09:35:31.393Z,75.18
2019-05-22T09:36:31.420Z,75.76
2019-05-22T09:37:31.373Z,74.24
2019-05-22T09:38:31.362Z,74.84
2019-05-22T09:39:31.350Z,74.95
2019-05-22T09:40:31.338Z,73.83
2019-05-22T09:41:31.353Z,74.40
2019-05-22T09:42:31.317Z,74.64
2019-05-22T09:43:31.306Z,74.20
2019-05-22T09:44:31.295Z,74.60
2019-05-22T09:45:31.585Z,73.19
2019-05-22T09:46:31.274Z,74.30
2019-05-22T09:47:31.279Z,73.19
2019-05-22T09:48:31.253Z,74.27
2019-05-22T09:49:31.243Z,71.94
2019-05-22T09:50:31.231Z,73.25
2019-05-22T09:51:31.221Z,72.51
2019-05-22T09:52:31.221Z,72.88
2019-05-22T09:53:31.199Z,72.38
2019-05-22T09:54:31.187Z,70.86
2019-05-22T09:55:31.177Z,71.33
2019-05-22T09:56:31.168Z,71.53
2019-05-22T09:57:31.179Z,70.46
2019-05-22T09:58:31.149Z,71.37
2019-05-22T09:59:31.146Z,70.66
2019-05-22T10:00:31.161Z,71.87
2019-05-22T10:01:31.178Z,71.00
2019-05-22T10:02:31.117Z,71.09
2019-05-22T10:03:31.092Z,71.00
2019-05-22T10:04:31.085Z,70.59
2019-05-22T10:05:31.089Z,71.64
2019-05-22T10:06:31.058Z,71.84
2019-05-22T10:07:31.062Z,71.64
2019-05-22T10:08:31.040Z,72.85
2019-05-22T10:09:31.028Z,73.25
2019-05-22T10:10:31.016Z,73.29
2019-05-22T10:11:31.010Z,73.25
2019-05-22T10:12:31.006Z,72.55
2019-05-22T10:13:30.986Z,72.72
2019-05-22T10:14:30.976Z,70.83
2019-05-22T10:15:31.216Z,70.59
2019-05-22T10:16:30.952Z,71.00
2019-05-22T10:17:31.043Z,70.69
2019-05-22T10:18:30.936Z,71.30
2019-05-22T10:19:30.937Z,71.17
2019-05-22T10:20:30.911Z,71.87
2019-05-22T10:21:30.900Z,70.86
2019-05-22T10:22:30.913Z,68.74
2019-05-22T10:23:30.878Z,71.17
2019-05-22T10:24:30.870Z,70.66
2019-05-22T10:25:30.859Z,71.33
2019-05-22T10:26:30.852Z,70.12
2019-05-22T10:27:30.849Z,69.11
2019-05-22T10:28:30.825Z,68.40
2019-05-22T10:29:32.347Z,68.40
2019-05-22T10:30:30.802Z,68.94
2019-05-22T10:31:30.792Z,70.56
2019-05-22T10:32:32.235Z,70.93
2019-05-22T10:33:30.772Z,68.20
2019-05-22T10:34:30.761Z,69.58
2019-05-22T10:35:30.751Z,67.69
2019-05-22T10:36:30.739Z,68.07
2019-05-22T10:37:30.744Z,68.77
2019-05-22T10:38:30.730Z,68.44
2019-05-22T10:39:30.708Z,67.73
2019-05-22T10:40:30.704Z,66.69
2019-05-22T10:41:30.687Z,67.10
2019-05-22T10:42:30.688Z,66.69
2019-05-22T10:43:30.666Z,66.89
2019-05-22T10:44:30.660Z,67.40
2019-05-22T10:45:30.646Z,68.41
2019-05-22T10:46:30.632Z,67.93
2019-05-22T10:47:30.637Z,68.84
2019-05-22T10:48:30.611Z,68.54
2019-05-22T10:49:30.644Z,68.98
2019-05-22T10:50:30.594Z,67.97
2019-05-22T10:51:30.589Z,68.67
2019-05-22T10:52:30.601Z,67.97
2019-05-22T10:53:34.217Z,68.27
2019-05-22T10:54:30.557Z,68.57
2019-05-22T10:55:30.539Z,67.33
2019-05-22T10:56:30.527Z,68.33
2019-05-22T10:57:30.517Z,67.63
2019-05-22T10:58:30.517Z,67.73
2019-05-22T10:59:30.500Z,68.74
2019-05-22T11:00:30.484Z,67.73
2019-05-22T11:01:30.491Z,66.93
2019-05-22T11:02:30.465Z,66.79
2019-05-22T11:03:30.464Z,66.69
2019-05-22T11:04:30.446Z,68.10
2019-05-22T11:05:30.434Z,65.41
2019-05-22T11:06:30.423Z,66.72
2019-05-22T11:07:30.410Z,66.72
2019-05-22T11:08:34.177Z,65.99
2019-05-22T11:09:30.408Z,66.08
2019-05-22T11:10:30.427Z,65.95
2019-05-22T11:11:30.373Z,66.05
2019-05-22T11:12:30.358Z,64.95
2019-05-22T11:13:34.024Z,66.16
2019-05-22T11:14:30.343Z,65.12
2019-05-22T11:15:30.325Z,65.09
2019-05-22T11:16:30.313Z,64.86
2019-05-22T11:17:30.308Z,63.24
2019-05-22T11:18:30.305Z,63.34
2019-05-22T11:19:30.282Z,61.93
2019-05-22T11:20:30.271Z,62.44
2019-05-22T11:21:30.260Z,63.92
2019-05-22T11:22:30.249Z,62.41
2019-05-22T11:23:30.253Z,61.40
2019-05-22T11:24:30.228Z,62.58
2019-05-22T11:25:30.218Z,60.57
2019-05-22T11:26:30.207Z,61.67
2019-05-22T11:27:30.197Z,63.15
2019-05-22T11:28:30.199Z,62.42
2019-05-22T11:29:30.179Z,62.72
2019-05-22T11:30:30.170Z,60.35
2019-05-22T11:31:30.154Z,59.55
2019-05-22T11:32:30.146Z,59.34
2019-05-22T11:33:34.071Z,60.25
2019-05-22T11:34:30.131Z,59.14
2019-05-22T11:35:30.114Z,60.15
2019-05-22T11:36:30.159Z,57.94
2019-05-22T11:37:30.093Z,57.67
2019-05-22T11:38:30.093Z,58.57
2019-05-22T11:39:39.327Z,58.47
2019-05-22T11:40:31.060Z,56.74
2019-05-22T11:41:30.051Z,56.63
2019-05-22T11:42:30.046Z,55.20
2019-05-22T11:43:30.043Z,56.58
2019-05-22T11:44:30.017Z,54.88
2019-05-22T11:45:30.012Z,55.98
2019-05-22T11:46:29.997Z,55.68
2019-05-22T11:47:29.987Z,54.95
2019-05-22T11:48:29.989Z,56.45
2019-05-22T11:49:29.963Z,56.73
2019-05-22T11:50:29.952Z,55.13
2019-05-22T11:51:29.940Z,53.82
2019-05-22T11:52:29.930Z,56.00
2019-05-22T11:53:29.938Z,56.43
2019-05-22T11:54:29.908Z,57.96
2019-05-22T11:55:44.278Z,58.26
2019-05-22T11:56:30.885Z,58.39
2019-05-22T11:57:29.877Z,59.89
2019-05-22T11:58:29.882Z,59.56
2019-05-22T11:59:29.861Z,59.09
2019-05-22T12:00:29.844Z,60.19
2019-05-22T12:01:29.833Z,59.59
2019-05-22T12:02:29.822Z,59.86
2019-05-22T12:03:29.847Z,58.56
2019-05-22T12:04:46.485Z,59.46
2019-05-22T12:05:30.791Z,60.27
2019-05-22T12:06:29.795Z,59.33
2019-05-22T12:07:29.806Z,59.44
2019-05-22T12:08:29.757Z,59.36
2019-05-22T12:09:29.750Z,58.96
2019-05-22T12:10:29.738Z,59.89
2019-05-22T12:11:29.724Z,58.18
2019-05-22T12:12:29.748Z,58.59
2019-05-22T12:13:29.707Z,59.29
2019-05-22T12:14:29.696Z,59.99
2019-05-22T12:15:29.689Z,58.56
2019-05-22T12:16:29.704Z,56.85
2019-05-22T12:17:38.092Z,56.56
2019-05-22T12:18:30.647Z,56.78
2019-05-22T12:19:29.641Z,54.93
2019-05-22T12:20:29.627Z,54.87
2019-05-22T12:21:29.615Z,55.77
2019-05-22T12:22:29.607Z,54.87
2019-05-22T12:23:29.598Z,53.12
2019-05-22T12:24:36.652Z,53.34
2019-05-22T12:25:30.575Z,53.55
2019-05-22T12:26:29.572Z,51.17
2019-05-22T12:27:29.554Z,53.09
2019-05-22T12:28:29.547Z,53.42
2019-05-22T12:29:29.548Z,53.64
2019-05-22T12:30:29.522Z,52.67
2019-05-22T12:31:29.511Z,53.67
2019-05-22T12:32:29.506Z,53.50
2019-05-22T12:33:29.494Z,54.10
2019-05-22T12:34:29.501Z,53.97
2019-05-22T12:35:29.468Z,53.72
2019-05-22T12:36:29.459Z,52.42
2019-05-22T12:37:29.447Z,53.59
2019-05-22T12:38:29.460Z,53.27
2019-05-22T12:39:29.440Z,51.09
2019-05-22T12:40:29.428Z,50.84
2019-05-22T12:41:29.405Z,50.22
2019-05-22T12:42:29.395Z,47.10
2019-05-22T12:43:29.389Z,46.27
2019-05-22T12:44:29.419Z,41.91
2019-05-22T12:45:29.370Z,38.12
2019-05-22T12:46:29.352Z,36.00
2019-05-22T12:47:29.347Z,35.02
2019-05-22T12:48:29.332Z,33.56
2019-05-22T12:49:29.336Z,34.72
2019-05-22T12:50:29.312Z,37.60
2019-05-22T12:51:29.301Z,38.82
2019-05-22T12:52:29.300Z,39.28
2019-05-22T12:53:29.281Z,40.50
2019-05-22T12:54:45.325Z,40.17
2019-05-22T12:55:30.256Z,34.77
2019-05-22T12:56:29.251Z,33.59
2019-05-22T12:57:29.239Z,34.49
2019-05-22T12:58:29.229Z,37.18
2019-05-22T12:59:29.246Z,40.52
2019-05-22T13:00:29.209Z,42.19
2019-05-22T13:01:29.199Z,43.15
2019-05-22T13:02:29.188Z,43.19
2019-05-22T13:03:29.180Z,43.73
2019-05-22T13:04:29.165Z,45.52
2019-05-22T13:05:29.167Z,43.76
2019-05-22T13:06:29.145Z,39.02
2019-05-22T13:07:29.135Z,39.98
2019-05-22T13:08:29.124Z,39.89
2019-05-22T13:09:29.115Z,40.42
2019-05-22T13:10:29.117Z,41.95
2019-05-22T13:11:29.093Z,42.07
2019-05-22T13:12:29.083Z,40.76
2019-05-22T13:13:29.074Z,40.37
2019-05-22T13:14:29.062Z,37.02
2019-05-22T13:15:29.070Z,37.96
2019-05-22T13:16:29.041Z,40.09
2019-05-22T13:17:29.055Z,40.47
2019-05-22T13:18:29.026Z,38.59
2019-05-22T13:19:29.013Z,35.46
2019-05-22T13:20:41.767Z,34.86
2019-05-22T13:21:29.991Z,31.86
2019-05-22T13:22:28.980Z,31.20
2019-05-22T13:23:28.972Z,31.19
2019-05-22T13:24:28.959Z,28.08
2019-05-22T13:25:28.964Z,31.36
2019-05-22T13:26:28.938Z,33.72
2019-05-22T13:27:28.930Z,35.99
2019-05-22T13:28:28.918Z,37.63
2019-05-22T13:29:28.908Z,38.66
2019-05-22T13:30:29.092Z,38.28
2019-05-22T13:31:28.895Z,39.75
2019-05-22T13:32:28.882Z,40.19
2019-05-22T13:33:28.877Z,40.11
2019-05-22T13:34:28.862Z,41.22
2019-05-22T13:35:28.861Z,42.51
2019-05-22T13:36:28.838Z,42.72
2019-05-22T13:37:28.919Z,43.18
2019-05-22T13:38:28.817Z,37.29
2019-05-22T13:39:28.808Z,34.78
2019-05-22T13:40:28.829Z,32.04
2019-05-22T13:41:28.787Z,29.80
2019-05-22T13:42:28.776Z,27.61
2019-05-22T13:43:28.771Z,27.69
2019-05-22T13:44:28.757Z,27.47
2019-05-22T13:45:30.174Z,26.18
2019-05-22T13:46:28.736Z,24.57
2019-05-22T13:47:28.733Z,24.37
2019-05-22T13:48:28.716Z,23.46
2019-05-22T13:49:28.709Z,22.17
2019-05-22T13:50:29.184Z,21.97
2019-05-22T13:51:28.688Z,23.01
2019-05-22T13:52:28.680Z,23.35
2019-05-22T13:53:28.669Z,24.51
2019-05-22T13:54:28.661Z,26.17
2019-05-22T13:55:28.687Z,27.09
2019-05-22T13:56:28.642Z,27.58
2019-05-22T13:57:28.632Z,24.38
2019-05-22T13:58:28.717Z,23.93
2019-05-22T13:59:28.611Z,23.69
2019-05-22T14:00:28.615Z,22.99
2019-05-22T14:01:28.593Z,21.70
2019-05-22T14:02:28.585Z,22.08
2019-05-22T14:03:28.574Z,22.56
2019-05-22T14:04:28.576Z,22.50
2019-05-22T14:05:28.569Z,24.45
2019-05-22T14:06:28.547Z,25.56
2019-05-22T14:07:28.537Z,26.17
2019-05-22T14:08:28.530Z,26.30
2019-05-22T14:09:28.521Z,23.21
2019-05-22T14:10:28.528Z,22.20
2019-05-22T14:11:28.500Z,22.78
2019-05-22T14:12:28.494Z,22.39
2019-05-22T14:13:28.484Z,23.10
2019-05-22T14:14:28.474Z,25.84
2019-05-22T14:15:47.353Z,26.10
2019-05-22T14:16:29.738Z,27.92
2019-05-22T14:17:28.447Z,28.17